Time;durP1;ratioP1;P1;durP2;ratioP2;P2;SDS_P1;SDS_P2;PMS_P1;PMS_P2;Temp;Humidity;BMP_temperature;BMP_pressure;BME280_temperature;BME280_humidity;BME280_pressure;Samples;Min_cycle;Max_cycle;Signal;HPM_P1;HPM_P2
2022/11/10 00:00:55;;;;;;;;;;;;;;;18.27;69.21;100802.60;2409942;74;52461;-75
2022/11/10 00:03:57;;;;;;;;;;;;;;;18.28;69.22;100808.27;2381709;74;52363;-75
2022/11/10 00:06:59;;;;;;;;;;;;;;;18.28;69.27;100816.31;2410361;74;50316;-75
2022/11/10 00:10:00;;;;;;;;;;;;;;;18.27;69.26;100810.13;2381777;74;50821;-75
2022/11/10 00:13:02;;;;;;;;;;;;;;;18.28;69.24;100817.65;2410000;74;52481;-75
2022/11/10 00:19:24;;;;;;;;;;;;;;;18.26;69.33;100827.22;2396341;73;22461;-75
2022/11/10 00:22:25;;;;;;;;;;;;;;;18.26;69.30;100825.02;2410374;74;51452;-75
2022/11/10 00:25:28;;;;;;;;;;;;;;;18.25;69.25;100824.19;2409804;74;50991;-75
2022/11/10 00:28:30;;;;;;;;;;;;;;;18.26;69.24;100831.23;2410256;74;50811;-76
2022/11/10 00:31:32;;;;;;;;;;;;;;;18.25;69.26;100831.40;2410264;74;51603;-75
2022/11/10 00:34:33;;;;;;;;;;;;;;;18.26;69.32;100835.73;2381903;74;51388;-75
2022/11/10 00:37:35;;;;;;;;;;;;;;;18.26;69.33;100833.05;2381599;74;51010;-75
2022/11/10 00:40:36;;;;;;;;;;;;;;;18.24;69.28;100835.10;2382350;73;50250;-75
2022/11/10 00:43:38;;;;;;;;;;;;;;;18.26;69.34;100838.41;2382196;74;50374;-75
2022/11/10 00:46:39;;;;;;;;;;;;;;;18.25;69.46;100844.28;2387732;73;50608;-75
2022/11/10 00:49:41;;;;;;;;;;;;;;;18.24;69.24;100841.28;2352428;73;50304;-76
2022/11/10 00:53:07;;;;;;;;;;;;;;;18.24;69.21;100838.61;2411866;73;51421;-75
2022/11/10 00:56:08;;;;;;;;;;;;;;;18.25;69.23;100842.11;2415074;73;50312;-77
2022/11/10 00:59:10;;;;;;;;;;;;;;;18.25;69.37;100847.47;2389803;73;50617;-75
2022/11/10 01:02:11;;;;;;;;;;;;;;;18.27;69.44;100848.97;2390075;73;52694;-75
2022/11/10 01:05:13;;;;;;;;;;;;;;;18.26;69.39;100859.36;2415770;73;50648;-77
2022/11/10 01:08:15;;;;;;;;;;;;;;;18.25;69.42;100861.69;2382669;73;51461;-75
2022/11/10 01:11:20;;;;;;;;;;;;;;;18.26;69.17;100867.87;2383617;73;51373;-75
2022/11/10 01:14:22;;;;;;;;;;;;;;;18.25;69.12;100867.05;2373354;73;49611;-75
2022/11/10 01:17:23;;;;;;;;;;;;;;;18.24;69.12;100868.07;2355239;73;50297;-75
2022/11/10 01:20:25;;;;;;;;;;;;;;;18.26;69.64;100874.09;2410408;73;50272;-75
2022/11/10 01:23:27;;;;;;;;;;;;;;;18.26;69.28;100867.87;2410404;74;50231;-75
2022/11/10 01:29:32;;;;;;;;;;;;;;;18.26;69.11;100869.22;2285427;76;23155;-75
2022/11/10 01:32:33;;;;;;;;;;;;;;;18.25;69.04;100869.73;2285660;78;51539;-76
2022/11/10 01:35:35;;;;;;;;;;;;;;;18.27;69.04;100874.92;2285813;78;51628;-75
2022/11/10 01:38:37;;;;;;;;;;;;;;;18.25;69.02;100882.29;2259738;78;50967;-75
2022/11/10 01:41:38;;;;;;;;;;;;;;;18.25;69.06;100881.78;2286190;76;51435;-76
2022/11/10 01:44:40;;;;;;;;;;;;;;;18.25;69.08;100889.81;2286007;78;51634;-76
2022/11/10 01:47:42;;;;;;;;;;;;;;;18.25;69.00;100893.00;2285749;78;51619;-76
2022/11/10 01:50:43;;;;;;;;;;;;;;;18.23;68.97;100887.81;2285459;76;52298;-76
2022/11/10 01:53:46;;;;;;;;;;;;;;;18.26;69.11;100896.00;2285514;78;51507;-75
2022/11/10 01:56:49;;;;;;;;;;;;;;;18.29;69.27;100901.03;2285707;78;51647;-75
2022/11/10 01:59:50;;;;;;;;;;;;;;;18.27;68.97;100907.89;2285692;75;50373;-76
2022/11/10 02:02:53;;;;;;;;;;;;;;;18.30;68.93;100912.06;2285672;78;51310;-76
2022/11/10 02:05:55;;;;;;;;;;;;;;;18.31;69.56;100919.08;2299255;75;50227;-75
2022/11/10 02:09:01;;;;;;;;;;;;;;;18.31;69.05;100920.93;2381753;73;50533;-75
2022/11/10 02:12:00;;;;;;;;;;;;;;;18.34;69.54;100924.59;2410656;74;23292;-75
2022/11/10 02:15:03;;;;;;;;;;;;;;;18.34;69.52;100921.44;2381629;74;52319;-75
2022/11/10 02:18:05;;;;;;;;;;;;;;;18.35;69.42;100924.43;2372795;73;50468;-75
2022/11/10 02:21:07;;;;;;;;;;;;;;;18.32;69.16;100926.13;2396504;73;50290;-75
2022/11/10 02:24:09;;;;;;;;;;;;;;;18.35;69.14;100927.11;2411955;73;50337;-75
2022/11/10 02:27:11;;;;;;;;;;;;;;;18.37;69.10;100930.45;2414783;72;50670;-76
2022/11/10 02:30:12;;;;;;;;;;;;;;;18.37;69.10;100931.80;2411349;73;51411;-75
2022/11/10 02:33:16;;;;;;;;;;;;;;;18.37;69.01;100937.16;2408855;74;51535;-75
2022/11/10 02:36:17;;;;;;;;;;;;;;;18.34;69.32;100944.69;2411565;73;23600;-75
2022/11/10 02:39:19;;;;;;;;;;;;;;;18.35;69.01;100953.91;2414853;73;49613;-75
2022/11/10 02:42:20;;;;;;;;;;;;;;;18.37;69.03;100945.67;2412177;72;50632;-75
2022/11/10 02:45:22;;;;;;;;;;;;;;;18.36;69.26;100944.84;2397269;73;50272;-74
2022/11/10 02:48:23;;;;;;;;;;;;;;;18.34;68.86;100947.37;2410144;73;51438;-74
2022/11/10 02:51:25;;;;;;;;;;;;;;;18.35;69.19;100962.45;2417485;73;51791;-74
2022/11/10 02:54:27;;;;;;;;;;;;;;;18.33;69.15;100951.89;2373987;74;51284;-75
2022/11/10 02:57:28;;;;;;;;;;;;;;;18.35;68.98;100949.88;2369844;74;51539;-75
2022/11/10 03:00:30;;;;;;;;;;;;;;;18.36;69.23;100956.90;2369652;74;50256;-75
2022/11/10 03:03:32;;;;;;;;;;;;;;;18.35;69.23;100968.64;2369765;75;52045;-75
2022/11/10 03:06:33;;;;;;;;;;;;;;;18.34;68.96;100969.66;2340795;75;51018;-75
2022/11/10 03:09:35;;;;;;;;;;;;;;;18.35;68.92;100974.00;2340832;74;51490;-75
2022/11/10 03:12:36;;;;;;;;;;;;;;;18.33;69.06;100973.33;2340867;75;51434;-75
2022/11/10 03:15:38;;;;;;;;;;;;;;;18.35;69.26;100975.33;2340648;75;50037;-75
2022/11/10 03:18:39;;;;;;;;;;;;;;;18.33;69.08;100984.04;2365499;74;49590;-75
2022/11/10 03:21:41;;;;;;;;;;;;;;;18.34;69.21;100997.78;2381938;74;50335;-75
2022/11/10 03:24:43;;;;;;;;;;;;;;;18.37;69.17;101008.15;2381637;74;50664;-75
2022/11/10 03:27:45;;;;;;;;;;;;;;;18.36;69.13;101004.30;2410409;74;51404;-75
2022/11/10 03:30:46;;;;;;;;;;;;;;;18.37;69.28;101012.17;2409919;74;52447;-75
2022/11/10 03:33:48;;;;;;;;;;;;;;;18.35;69.33;101011.50;2410029;74;50284;-75
2022/11/10 03:36:49;;;;;;;;;;;;;;;18.34;69.29;101017.02;2382345;73;50223;-75
2022/11/10 03:39:51;;;;;;;;;;;;;;;18.34;68.77;101033.95;2381578;74;52510;-75
2022/11/10 03:42:53;;;;;;;;;;;;;;;18.34;69.03;101029.94;2409913;74;50018;-75
2022/11/10 03:45:54;;;;;;;;;;;;;;;18.35;69.07;101030.77;2380543;73;52181;-75
2022/11/10 03:48:56;;;;;;;;;;;;;;;18.36;68.91;101029.23;2369060;73;50651;-75
2022/11/10 03:51:57;;;;;;;;;;;;;;;18.33;68.88;101034.94;2414000;73;51532;-75
2022/11/10 03:54:59;;;;;;;;;;;;;;;18.35;68.78;101039.63;2360353;73;52498;-75
2022/11/10 03:58:02;;;;;;;;;;;;;;;18.36;69.27;101041.29;2414069;73;51516;-75
2022/11/10 04:01:03;;;;;;;;;;;;;;;18.36;69.23;101039.12;2413994;73;50494;-75
2022/11/10 04:08:57;;;;;;;;;;;;;;;18.37;69.09;101042.12;2413772;73;50422;-75
2022/11/10 04:10:30;;;;;;;;;;;;;;;18.30;67.91;101047.34;2414476;73;22322;-76
2022/11/10 04:16:50;;;;;;;;;;;;;;;18.27;67.67;101055.73;2391225;73;22348;-76
2022/11/10 04:19:52;;;;;;;;;;;;;;;18.26;67.71;101058.92;2416781;73;52561;-76
2022/11/10 04:26:29;;;;;;;;;;;;;;;18.25;67.82;101072.47;2414405;73;23106;-76
2022/11/10 04:29:30;;;;;;;;;;;;;;;18.24;67.77;101078.84;2413976;73;50749;-75
2022/11/10 04:32:32;;;;;;;;;;;;;;;18.22;67.71;101081.68;2360545;73;50118;-75
2022/11/10 04:35:33;;;;;;;;;;;;;;;18.22;67.76;101084.87;2387249;73;51508;-75
2022/11/10 04:38:35;;;;;;;;;;;;;;;18.21;67.85;101093.89;2388415;73;51570;-75
2022/11/10 04:41:37;;;;;;;;;;;;;;;18.20;67.85;101094.91;2386815;73;51229;-76
2022/11/10 04:44:38;;;;;;;;;;;;;;;18.20;67.82;101100.27;2416179;73;49570;-76
2022/11/10 04:47:40;;;;;;;;;;;;;;;18.21;67.65;101099.25;2356941;74;49881;-76
2022/11/10 04:50:41;;;;;;;;;;;;;;;18.20;67.75;101102.95;2385416;73;50099;-76
2022/11/10 04:53:43;;;;;;;;;;;;;;;18.19;68.01;101100.77;2388710;73;50601;-76
2022/11/10 04:56:44;;;;;;;;;;;;;;;18.19;67.94;101106.13;2342019;73;52355;-75
2022/11/10 04:59:46;;;;;;;;;;;;;;;18.20;67.91;101100.27;2412079;73;51597;-76
2022/11/10 05:02:48;;;;;;;;;;;;;;;18.21;68.12;101107.28;2412150;73;51407;-75
2022/11/10 05:05:49;;;;;;;;;;;;;;;18.22;68.08;101111.66;2383013;73;51401;-76
2022/11/10 05:08:51;;;;;;;;;;;;;;;18.21;68.18;101107.28;2383407;73;51633;-76
2022/11/10 05:11:52;;;;;;;;;;;;;;;18.22;68.21;101115.67;2383478;73;53677;-76
2022/11/10 05:14:54;;;;;;;;;;;;;;;18.21;68.00;101118.00;2383232;73;50298;-76
2022/11/10 05:17:56;;;;;;;;;;;;;;;18.22;68.14;101123.70;2384810;73;50798;-76
2022/11/10 05:20:58;;;;;;;;;;;;;;;18.21;68.18;101120.67;2345441;74;52339;-77
2022/11/10 05:23:59;;;;;;;;;;;;;;;18.24;68.16;101132.42;2368996;75;52105;-76
2022/11/10 05:27:02;;;;;;;;;;;;;;;18.23;68.05;101140.93;2369305;75;50238;-76
2022/11/10 05:30:03;;;;;;;;;;;;;;;18.25;68.19;101142.11;2369324;75;50835;-76
2022/11/10 05:33:05;;;;;;;;;;;;;;;18.25;68.17;101153.66;2369417;75;50054;-75
2022/11/10 05:36:07;;;;;;;;;;;;;;;18.27;68.23;101158.86;2369498;75;50310;-76
2022/11/10 05:39:09;;;;;;;;;;;;;;;18.24;68.19;101161.38;2369305;75;50022;-77
2022/11/10 05:42:10;;;;;;;;;;;;;;;18.24;68.62;101165.90;2369807;75;50197;-75
2022/11/10 05:45:12;;;;;;;;;;;;;;;18.26;68.72;101179.94;2369035;75;51081;-77
2022/11/10 05:48:13;;;;;;;;;;;;;;;18.27;68.80;101188.33;2383281;73;50651;-76
2022/11/10 05:51:15;;;;;;;;;;;;;;;18.25;68.42;101187.14;2412486;73;51404;-77
2022/11/10 05:54:16;;;;;;;;;;;;;;;18.26;68.47;101198.69;2386460;73;51633;-77
2022/11/10 05:57:18;;;;;;;;;;;;;;;18.27;68.33;101200.38;2386627;73;52339;-75
2022/11/10 06:00:20;;;;;;;;;;;;;;;18.34;68.06;101213.92;2386610;73;51396;-76
2022/11/10 06:03:22;;;;;;;;;;;;;;;18.40;68.22;101214.11;2412095;73;52710;-76
2022/11/10 06:06:23;;;;;;;;;;;;;;;18.49;68.04;101223.80;2412463;73;51436;-76
2022/11/10 06:09:25;;;;;;;;;;;;;;;18.57;67.78;101234.19;2386426;73;52287;-76
2022/11/10 06:12:31;;;;;;;;;;;;;;;18.60;67.58;101236.52;2386548;73;51436;-76
2022/11/10 06:15:30;;;;;;;;;;;;;;;18.64;67.51;101247.25;2386135;73;22373;-76
2022/11/10 06:18:31;;;;;;;;;;;;;;;18.63;67.51;101248.27;2410321;72;51443;-76
2022/11/10 06:21:33;;;;;;;;;;;;;;;18.63;69.18;101250.95;2386266;73;51640;-76
2022/11/10 06:24:35;;;;;;;;;;;;;;;18.64;69.91;101261.99;2378059;73;51474;-76
2022/11/10 06:27:36;;;;;;;;;;;;;;;18.65;69.74;101257.81;2407459;73;51482;-76
2022/11/10 06:30:38;;;;;;;;;;;;;;;18.66;70.08;101266.18;2381980;74;50088;-76
2022/11/10 06:33:41;;;;;;;;;;;;;;;18.65;70.55;101270.36;2381297;74;51104;-76
2022/11/10 06:36:43;;;;;;;;;;;;;;;18.66;70.06;101288.97;2382227;74;51589;-76
2022/11/10 06:39:45;;;;;;;;;;;;;;;18.62;70.29;101298.84;2410290;74;51601;-75
2022/11/10 06:42:47;;;;;;;;;;;;;;;18.59;70.26;101301.86;2377820;74;50675;-76
2022/11/10 06:45:48;;;;;;;;;;;;;;;18.59;69.95;101304.55;2344685;73;50962;-76
2022/11/10 06:48:50;;;;;;;;;;;;;;;18.57;70.16;101318.09;2412721;73;51468;-76
2022/11/10 06:51:51;;;;;;;;;;;;;;;18.57;70.21;101323.97;2378408;74;51447;-76
2022/11/10 06:54:53;;;;;;;;;;;;;;;18.56;70.23;101330.34;2380365;73;51431;-76
2022/11/10 06:57:54;;;;;;;;;;;;;;;18.53;70.35;101336.88;2400278;73;51167;-76
2022/11/10 07:00:58;;;;;;;;;;;;;;;18.52;70.19;101349.09;2380538;74;50284;-76
2022/11/10 07:03:59;;;;;;;;;;;;;;;18.52;70.26;101343.73;2361160;74;50435;-76
2022/11/10 07:07:01;;;;;;;;;;;;;;;18.50;70.25;101355.97;2381975;73;50439;-76
2022/11/10 07:10:02;;;;;;;;;;;;;;;18.48;70.25;101357.46;2380212;73;50100;-76
2022/11/10 07:13:04;;;;;;;;;;;;;;;18.48;70.12;101373.55;2387717;73;50215;-75
2022/11/10 07:16:06;;;;;;;;;;;;;;;18.48;70.17;101377.56;2424700;72;51594;-75
2022/11/10 07:19:08;;;;;;;;;;;;;;;18.48;70.04;101388.28;2441301;72;50239;-75
2022/11/10 07:22:09;;;;;;;;;;;;;;;18.48;70.12;101401.68;2364731;74;51141;-75
2022/11/10 07:25:11;;;;;;;;;;;;;;;18.48;70.06;101402.19;2407929;74;50731;-75
2022/11/10 07:28:12;;;;;;;;;;;;;;;18.47;70.06;101401.36;2369966;75;50389;-76
2022/11/10 07:31:14;;;;;;;;;;;;;;;18.46;70.07;101401.00;2369109;73;50720;-77
2022/11/10 07:34:16;;;;;;;;;;;;;;;18.45;70.06;101402.02;2350948;74;52743;-77
2022/11/10 07:37:17;;;;;;;;;;;;;;;18.46;69.77;101413.06;2354042;74;51641;-77
2022/11/10 07:40:19;;;;;;;;;;;;;;;18.46;69.79;101418.42;2368874;74;52636;-77
2022/11/10 07:43:21;;;;;;;;;;;;;;;18.47;69.66;101425.95;2368148;73;51522;-77
2022/11/10 07:46:22;;;;;;;;;;;;;;;18.45;69.53;101430.16;2375762;73;51042;-77
2022/11/10 07:49:24;;;;;;;;;;;;;;;18.44;69.50;101433.81;2381874;73;51482;-77
2022/11/10 07:52:26;;;;;;;;;;;;;;;18.42;69.48;101427.80;2412108;73;51606;-77
2022/11/10 07:55:27;;;;;;;;;;;;;;;18.43;69.42;101441.52;2381776;73;50539;-77
2022/11/10 07:58:29;;;;;;;;;;;;;;;18.43;69.30;101450.91;2354085;73;52338;-77
2022/11/10 08:01:32;;;;;;;;;;;;;;;18.43;69.37;101444.72;2382056;73;50692;-77
2022/11/10 08:04:34;;;;;;;;;;;;;;;18.42;69.34;101452.39;2411563;73;52835;-77
2022/11/10 08:07:36;;;;;;;;;;;;;;;18.42;69.34;101458.62;2383488;73;51100;-77
2022/11/10 08:10:37;;;;;;;;;;;;;;;18.42;69.27;101463.11;2355969;73;51630;-77
2022/11/10 08:13:39;;;;;;;;;;;;;;;18.41;69.33;101460.94;2370032;73;50225;-77
2022/11/10 08:16:40;;;;;;;;;;;;;;;18.41;69.26;101474.34;2407036;72;50329;-77
2022/11/10 08:19:42;;;;;;;;;;;;;;;18.42;69.25;101468.47;2391969;73;49944;-77
2022/11/10 08:22:44;;;;;;;;;;;;;;;18.41;69.26;101474.34;2372734;73;51487;-77
2022/11/10 08:25:46;;;;;;;;;;;;;;;18.41;69.32;101474.84;2396588;73;50400;-77
2022/11/10 08:28:48;;;;;;;;;;;;;;;18.41;69.36;101481.55;2412032;72;50769;-77
2022/11/10 08:31:50;;;;;;;;;;;;;;;18.42;69.38;101488.57;2408921;74;51391;-77
2022/11/10 08:34:52;;;;;;;;;;;;;;;18.40;69.29;101488.75;2359292;73;50201;-77
2022/11/10 08:37:54;;;;;;;;;;;;;;;18.40;69.27;101488.75;2386370;73;51466;-77
2022/11/10 08:40:56;;;;;;;;;;;;;;;18.39;69.23;101483.03;2412203;73;51906;-77
2022/11/10 08:43:58;;;;;;;;;;;;;;;18.40;69.28;101490.59;2412515;73;50453;-77
2022/11/10 08:47:01;;;;;;;;;;;;;;;18.38;69.31;101500.12;2359541;73;51883;-77
2022/11/10 08:50:03;;;;;;;;;;;;;;;18.39;69.31;101507.14;2386763;73;50449;-77
2022/11/10 08:53:06;;;;;;;;;;;;;;;18.39;69.29;101508.48;2409974;72;50625;-77
2022/11/10 08:56:07;;;;;;;;;;;;;;;18.39;69.31;101525.91;2413197;73;51503;-76
2022/11/10 08:59:09;;;;;;;;;;;;;;;18.40;69.24;101528.95;2415832;73;51471;-77
2022/11/10 09:02:10;;;;;;;;;;;;;;;18.39;69.24;101531.77;2388270;73;51580;-78
2022/11/10 09:05:12;;;;;;;;;;;;;;;18.40;69.31;101542.84;2380689;73;51449;-78
2022/11/10 09:08:14;;;;;;;;;;;;;;;18.40;69.47;101549.55;2341748;75;51355;-79
2022/11/10 09:11:15;;;;;;;;;;;;;;;18.42;69.55;101559.58;2340965;75;52865;-78
2022/11/10 09:14:17;;;;;;;;;;;;;;;18.43;69.47;101566.13;2342374;74;50580;-79
2022/11/10 09:17:18;;;;;;;;;;;;;;;18.47;69.67;101559.47;2370223;75;51448;-79
2022/11/10 09:20:20;;;;;;;;;;;;;;;18.45;69.22;101565.48;2342608;75;53803;-79
2022/11/10 09:23:23;;;;;;;;;;;;;;;18.43;69.31;101578.70;2355644;73;51749;-79
2022/11/10 09:26:25;;;;;;;;;;;;;;;18.42;69.31;101579.20;2369832;74;51511;-79
2022/11/10 09:29:26;;;;;;;;;;;;;;;18.40;69.31;101585.22;2369339;75;51482;-79
2022/11/10 09:32:28;;;;;;;;;;;;;;;18.39;69.32;101579.50;2342534;75;52438;-79
2022/11/10 09:35:29;;;;;;;;;;;;;;;18.38;69.28;101585.03;2342399;75;51650;-79
2022/11/10 09:38:31;;;;;;;;;;;;;;;18.37;69.33;101585.54;2342355;75;51407;-79
2022/11/10 09:41:33;;;;;;;;;;;;;;;18.37;69.32;101587.35;2342487;75;53529;-79
2022/11/10 09:44:38;;;;;;;;;;;;;;;18.37;69.28;101590.89;2370006;75;50248;-79
2022/11/10 09:47:42;;;;;;;;;;;;;;;18.36;69.24;101593.22;2369801;74;50963;-78
2022/11/10 09:50:48;;;;;;;;;;;;;;;18.37;69.26;101597.59;2370704;75;51460;-78
2022/11/10 09:54:00;;;;;;;;;;;;;;;18.36;69.19;101601.25;2383736;73;51493;-78
2022/11/10 09:57:02;;;;;;;;;;;;;;;18.36;69.20;101609.30;2369599;75;50289;-79
2022/11/10 10:00:04;;;;;;;;;;;;;;;18.35;69.13;101599.59;2369748;73;50786;-79
2022/11/10 10:03:06;;;;;;;;;;;;;;;18.36;69.13;101605.78;2369973;75;50792;-79
2022/11/10 10:06:09;;;;;;;;;;;;;;;18.36;69.09;101610.63;2369917;74;50311;-79
2022/11/10 10:09:24;;;;;;;;;;;;;;;18.37;69.05;101607.45;2373408;75;50773;-79
2022/11/10 10:12:30;;;;;;;;;;;;;;;18.36;69.06;101602.59;2342277;75;50999;-79
2022/11/10 10:15:45;;;;;;;;;;;;;;;18.37;69.05;101609.66;2367978;75;50555;-79
2022/11/10 10:18:58;;;;;;;;;;;;;;;18.38;69.01;101607.81;2369200;75;51474;-79
2022/11/10 10:22:01;;;;;;;;;;;;;;;18.37;68.96;101605.64;2380456;72;51501;-79
2022/11/10 10:25:03;;;;;;;;;;;;;;;18.38;68.96;101599.77;2384142;73;51758;-78
2022/11/10 10:28:06;;;;;;;;;;;;;;;18.37;68.99;101608.31;2413065;73;50319;-79
2022/11/10 10:31:12;;;;;;;;;;;;;;;18.36;69.05;101609.30;2414046;73;51613;-80
2022/11/10 10:34:15;;;;;;;;;;;;;;;18.36;68.99;101609.80;2414125;73;50694;-79
2022/11/10 10:37:24;;;;;;;;;;;;;;;18.37;68.90;101608.31;2390445;73;51843;-79
2022/11/10 10:40:26;;;;;;;;;;;;;;;18.37;68.90;101610.99;2389265;73;50107;-79
2022/11/10 10:43:28;;;;;;;;;;;;;;;18.37;68.90;101606.97;2415188;73;50642;-79
2022/11/10 10:46:30;;;;;;;;;;;;;;;18.37;68.92;101612.33;2389467;73;51468;-79
2022/11/10 10:49:39;;;;;;;;;;;;;;;18.36;68.93;101617.33;2387384;73;50984;-79
2022/11/10 10:52:38;;;;;;;;;;;;;;;18.36;68.90;101625.38;2409993;73;22363;-79
2022/11/10 10:55:41;;;;;;;;;;;;;;;18.36;68.87;101620.52;2378749;73;50731;-79
2022/11/10 10:58:50;;;;;;;;;;;;;;;18.36;68.86;101621.35;2369265;75;50686;-79
2022/11/10 11:01:53;;;;;;;;;;;;;;;18.37;68.72;101631.09;2369242;75;50856;-79
2022/11/10 11:05:13;;;;;;;;;;;;;;;18.36;68.78;101638.77;2415976;72;51586;-79
2022/11/10 11:08:16;;;;;;;;;;;;;;;18.37;68.71;101639.12;2384594;73;51453;-79
2022/11/10 11:11:18;;;;;;;;;;;;;;;18.38;68.67;101631.42;2384557;73;51568;-78
2022/11/10 11:14:23;;;;;;;;;;;;;;;18.41;68.64;101634.28;2372426;73;50400;-78
2022/11/10 11:17:25;;;;;;;;;;;;;;;18.40;68.66;101630.77;2359646;73;50444;-78
2022/11/10 11:20:37;;;;;;;;;;;;;;;18.43;68.50;101634.97;2384091;73;50171;-78
2022/11/10 11:23:40;;;;;;;;;;;;;;;18.42;68.54;101631.45;2369352;75;50739;-79
2022/11/10 11:26:50;;;;;;;;;;;;;;;18.40;68.56;101637.47;2369094;75;50314;-79
2022/11/10 11:30:02;;;;;;;;;;;;;;;18.40;68.59;101637.47;2369025;74;50322;-78
2022/11/10 11:33:05;;;;;;;;;;;;;;;18.42;68.56;101631.45;2369285;75;50237;-78
2022/11/10 11:36:09;;;;;;;;;;;;;;;18.44;68.47;101629.44;2386296;74;50442;-78
2022/11/10 11:39:30;;;;;;;;;;;;;;;18.47;68.37;101635.84;2343450;75;52412;-78
2022/11/10 11:42:50;;;;;;;;;;;;;;;18.46;68.46;101639.50;2363923;74;50302;-78
2022/11/10 11:45:53;;;;;;;;;;;;;;;18.48;68.55;101640.20;2406366;74;51490;-78
2022/11/10 11:49:09;;;;;;;;;;;;;;;18.47;68.60;101633.16;2396776;73;51486;-78
2022/11/10 11:52:12;;;;;;;;;;;;;;;18.47;68.68;101644.36;2385410;73;52987;-78
2022/11/10 11:55:18;;;;;;;;;;;;;;;18.48;68.82;101644.22;2412738;73;51518;-78
2022/11/10 11:58:24;;;;;;;;;;;;;;;18.48;68.85;101646.06;2412732;73;51508;-78
2022/11/10 12:01:27;;;;;;;;;;;;;;;18.55;68.77;101638.20;2350772;73;50640;-78
2022/11/10 12:04:43;;;;;;;;;;;;;;;18.53;68.82;101642.91;2383899;73;51416;-79
2022/11/10 12:07:49;;;;;;;;;;;;;;;18.53;68.81;101645.59;2326842;76;51453;-78
2022/11/10 12:10:52;;;;;;;;;;;;;;;18.51;68.85;101641.72;2307091;75;50892;-78
2022/11/10 12:14:01;;;;;;;;;;;;;;;18.50;68.86;101641.39;2299899;76;52433;-78
2022/11/10 12:17:10;;;;;;;;;;;;;;;18.47;68.87;101631.83;2293028;75;51651;-79
2022/11/10 12:20:13;;;;;;;;;;;;;;;18.46;69.08;101640.84;2314502;76;51575;-79
2022/11/10 12:23:22;;;;;;;;;;;;;;;18.42;69.40;101635.48;2310991;76;51530;-79
2022/11/10 12:26:34;;;;;;;;;;;;;;;18.43;69.30;101643.84;2311139;76;51854;-79
2022/11/10 12:29:55;;;;;;;;;;;;;;;18.45;69.46;101654.42;2295220;76;51719;-79
2022/11/10 12:32:59;;;;;;;;;;;;;;;18.43;69.47;101639.83;2247568;78;50394;-79
2022/11/10 12:36:00;;;;;;;;;;;;;;;18.44;69.46;101646.02;2246316;79;50282;-79
2022/11/10 12:39:03;;;;;;;;;;;;;;;18.43;69.45;101650.55;2247185;79;51466;-79
2022/11/10 12:42:05;;;;;;;;;;;;;;;18.44;69.49;101655.40;2227046;79;52353;-78
2022/11/10 12:45:07;;;;;;;;;;;;;;;18.44;69.44;101669.63;2324039;76;51547;-79
2022/11/10 12:48:10;;;;;;;;;;;;;;;18.43;69.45;101677.34;2377884;73;51462;-79
2022/11/10 12:51:26;;;;;;;;;;;;;;;18.43;69.47;101682.70;2381371;74;50417;-79
2022/11/10 12:54:27;;;;;;;;;;;;;;;18.44;69.43;101684.37;2354435;74;52877;-79
2022/11/10 12:57:29;;;;;;;;;;;;;;;18.44;69.43;101684.87;2382399;74;51436;-79
2022/11/10 13:00:31;;;;;;;;;;;;;;;18.44;69.39;101700.95;2382111;74;50721;-79
2022/11/10 13:03:36;;;;;;;;;;;;;;;18.44;69.38;101697.77;2393379;73;50244;-79
2022/11/10 13:06:39;;;;;;;;;;;;;;;18.45;69.32;101700.81;2401124;73;51245;-79
2022/11/10 13:09:43;;;;;;;;;;;;;;;18.45;69.30;101695.95;2402192;73;50292;-80
2022/11/10 13:12:58;;;;;;;;;;;;;;;18.45;69.26;101694.11;2385797;73;51657;-79
2022/11/10 13:16:00;;;;;;;;;;;;;;;18.46;69.22;101697.63;2368575;74;50498;-79
2022/11/10 13:19:02;;;;;;;;;;;;;;;18.47;69.27;101697.95;2315891;74;52529;-79
2022/11/10 13:22:05;;;;;;;;;;;;;;;18.44;69.27;101707.15;2388384;73;50703;-79
2022/11/10 13:25:25;;;;;;;;;;;;;;;18.44;69.29;101704.47;2411492;73;50420;-79
2022/11/10 13:28:45;;;;;;;;;;;;;;;18.45;69.21;101714.21;2412628;73;51627;-79
2022/11/10 13:31:50;;;;;;;;;;;;;;;18.45;69.15;101710.19;2412475;73;51493;-79
2022/11/10 13:34:51;;;;;;;;;;;;;;;18.46;69.17;101710.52;2412895;73;52192;-79
2022/11/10 13:37:53;;;;;;;;;;;;;;;18.44;69.31;101718.37;2412759;73;51511;-79
2022/11/10 13:40:55;;;;;;;;;;;;;;;18.43;69.34;101723.41;2413023;73;51197;-79
2022/11/10 13:43:56;;;;;;;;;;;;;;;18.41;69.39;101716.02;2386474;73;51514;-79
2022/11/10 13:46:59;;;;;;;;;;;;;;;18.42;69.28;101717.69;2401996;73;51634;-78
2022/11/10 13:50:09;;;;;;;;;;;;;;;18.40;69.28;101723.72;2412159;73;51480;-78
2022/11/10 13:53:12;;;;;;;;;;;;;;;18.41;69.32;101724.89;2380853;73;51533;-79
2022/11/10 13:56:32;;;;;;;;;;;;;;;18.42;69.46;101721.70;2384066;73;51750;-78
2022/11/10 13:59:36;;;;;;;;;;;;;;;18.44;69.37;101727.75;2415005;73;50790;-79
2022/11/10 14:02:41;;;;;;;;;;;;;;;18.42;69.39;101731.95;2415140;73;23011;-79
2022/11/10 14:05:50;;;;;;;;;;;;;;;18.42;69.35;101730.61;2387839;73;51075;-80
2022/11/10 14:08:53;;;;;;;;;;;;;;;18.42;69.36;101733.77;2386068;73;52220;-79
2022/11/10 14:11:56;;;;;;;;;;;;;;;18.39;69.40;101744.29;2415014;73;50467;-78
2022/11/10 14:15:06;;;;;;;;;;;;;;;18.41;69.30;101749.00;2413827;73;51555;-78
2022/11/10 14:18:24;;;;;;;;;;;;;;;18.40;69.31;101764.75;2401995;72;51557;-79
2022/11/10 14:21:33;;;;;;;;;;;;;;;18.41;69.28;101761.06;2383781;73;50104;-78
2022/11/10 14:24:36;;;;;;;;;;;;;;;18.39;69.27;101756.34;2412032;73;50260;-78
2022/11/10 14:27:37;;;;;;;;;;;;;;;18.40;69.28;101755.87;2412181;73;51514;-78
2022/11/10 14:30:39;;;;;;;;;;;;;;;18.41;69.24;101766.93;2412221;73;50753;-78
2022/11/10 14:33:41;;;;;;;;;;;;;;;18.45;69.12;101770.49;2380963;73;50100;-79
2022/11/10 14:36:52;;;;;;;;;;;;;;;18.46;69.02;101774.84;2412348;73;50213;-79
2022/11/10 14:39:54;;;;;;;;;;;;;;;18.45;69.03;101777.70;2412065;73;51642;-78
2022/11/10 14:42:56;;;;;;;;;;;;;;;18.42;69.10;101782.86;2412155;73;50380;-78
2022/11/10 14:45:58;;;;;;;;;;;;;;;18.42;69.09;101778.84;2382899;73;52600;-78
2022/11/10 14:49:00;;;;;;;;;;;;;;;18.41;69.13;101786.52;2344559;73;51540;-78
2022/11/10 14:52:02;;;;;;;;;;;;;;;18.40;69.14;101790.21;2409525;73;50336;-80
2022/11/10 14:55:08;;;;;;;;;;;;;;;18.39;69.10;101800.56;2397457;73;50711;-78
2022/11/10 14:58:15;;;;;;;;;;;;;;;18.41;69.04;101799.92;2412196;73;51720;-79
2022/11/10 15:01:24;;;;;;;;;;;;;;;18.44;68.95;101810.33;2375427;73;50430;-78
2022/11/10 15:04:27;;;;;;;;;;;;;;;18.44;68.90;101804.97;2368520;74;50682;-79
2022/11/10 15:07:29;;;;;;;;;;;;;;;18.41;68.94;101819.19;2405222;74;51417;-76
2022/11/10 15:10:38;;;;;;;;;;;;;;;18.41;68.92;101820.02;2411041;73;50948;-79
2022/11/10 15:13:40;;;;;;;;;;;;;;;18.40;69.03;101825.05;2409000;73;50393;-78
2022/11/10 15:16:43;;;;;;;;;;;;;;;18.39;69.24;101834.06;2404637;74;50678;-78
2022/11/10 15:19:47;;;;;;;;;;;;;;;18.37;69.43;101833.87;2381244;73;50727;-79
2022/11/10 15:22:49;;;;;;;;;;;;;;;18.38;69.57;101832.89;2370729;74;51241;-80
2022/11/10 15:25:50;;;;;;;;;;;;;;;18.37;69.17;101837.42;2369880;75;51468;-79
2022/11/10 15:28:52;;;;;;;;;;;;;;;18.39;69.07;101842.61;2369367;74;50643;-79
2022/11/10 15:31:53;;;;;;;;;;;;;;;18.46;68.81;101843.69;2370283;74;51423;-79
2022/11/10 15:34:57;;;;;;;;;;;;;;;18.53;68.56;101843.93;2342607;75;51012;-79
2022/11/10 15:38:02;;;;;;;;;;;;;;;18.48;68.61;101847.89;2368579;75;51506;-79
2022/11/10 15:41:05;;;;;;;;;;;;;;;18.46;68.62;101852.56;2370322;75;51565;-79
2022/11/10 15:44:16;;;;;;;;;;;;;;;18.43;68.70;101854.72;2370415;75;50958;-79
2022/11/10 15:47:19;;;;;;;;;;;;;;;18.41;68.75;101861.55;2368848;72;50106;-78
2022/11/10 15:50:21;;;;;;;;;;;;;;;18.39;68.81;101858.69;2405686;73;51593;-78
2022/11/10 15:53:24;;;;;;;;;;;;;;;18.38;68.83;101870.41;2412605;73;50235;-79
2022/11/10 15:56:26;;;;;;;;;;;;;;;18.38;68.72;101867.73;2375436;73;50924;-79